sensor_id;sensor_type;location;lat;lon;timestamp;pressure;altitude;pressure_sealevel;temperature;humidity
72444;BME280;60449;52.016;5.414;2023-08-20T00:00:10;101985.81;;;19.73;78.75
72444;BME280;60449;52.016;5.414;2023-08-20T00:01:18;101979.59;;;19.73;78.45
72444;BME280;60449;52.016;5.414;2023-08-20T00:02:23;101978.66;;;19.77;78.21
72444;BME280;60449;52.016;5.414;2023-08-20T00:03:19;101976.78;;;19.82;78.01
72444;BME280;60449;52.016;5.414;2023-08-20T00:04:25;101973.44;;;19.64;78.40
72444;BME280;60449;52.016;5.414;2023-08-20T00:05:17;101976.81;;;19.80;77.97
72444;BME280;60449;52.016;5.414;2023-08-20T00:06:33;101982.34;;;19.66;78.31
72444;BME280;60449;52.016;5.414;2023-08-20T00:08:30;101982.44;;;19.59;78.18
72444;BME280;60449;52.016;5.414;2023-08-20T00:09:31;101991.31;;;19.64;78.69
72444;BME280;60449;52.016;5.414;2023-08-20T00:10:36;101988.75;;;19.53;78.48
72444;BME280;60449;52.016;5.414;2023-08-20T00:11:32;101987.13;;;19.39;79.13
72444;BME280;60449;52.016;5.414;2023-08-20T00:12:21;101987.03;;;19.47;79.42
72444;BME280;60449;52.016;5.414;2023-08-20T00:13:13;101989.88;;;19.33;79.04
72444;BME280;60449;52.016;5.414;2023-08-20T00:14:03;101992.47;;;19.39;79.02
72444;BME280;60449;52.016;5.414;2023-08-20T00:14:57;101993.28;;;19.46;78.98
72444;BME280;60449;52.016;5.414;2023-08-20T00:15:54;101995.03;;;19.49;78.66
72444;BME280;60449;52.016;5.414;2023-08-20T00:29:47;101997.81;;;19.39;78.42
72444;BME280;60449;52.016;5.414;2023-08-20T00:30:53;101998.03;;;19.21;78.57
72444;BME280;60449;52.016;5.414;2023-08-20T00:31:44;101991.13;;;19.00;79.66
72444;BME280;60449;52.016;5.414;2023-08-20T00:32:34;101996.53;;;18.89;80.04
72444;BME280;60449;52.016;5.414;2023-08-20T00:33:25;101995.69;;;18.83;80.95
72444;BME280;60449;52.016;5.414;2023-08-20T00:34:15;101990.41;;;18.79;80.94
72444;BME280;60449;52.016;5.414;2023-08-20T00:35:05;102004.75;;;18.64;81.36
72444;BME280;60449;52.016;5.414;2023-08-20T00:36:03;102009.25;;;18.59;82.10
72444;BME280;60449;52.016;5.414;2023-08-20T00:36:53;102009.13;;;18.74;81.90
72444;BME280;60449;52.016;5.414;2023-08-20T00:37:44;102016.34;;;18.63;81.27
72444;BME280;60449;52.016;5.414;2023-08-20T00:38:37;102012.75;;;18.64;82.17
72444;BME280;60449;52.016;5.414;2023-08-20T00:39:41;102019.72;;;18.88;80.52
72444;BME280;60449;52.016;5.414;2023-08-20T00:40:59;102016.06;;;18.94;80.92
72444;BME280;60449;52.016;5.414;2023-08-20T00:41:48;102013.28;;;19.09;79.95
72444;BME280;60449;52.016;5.414;2023-08-20T00:42:42;102015.94;;;19.13;79.89
72444;BME280;60449;52.016;5.414;2023-08-20T00:44:11;102016.03;;;19.02;80.35
72444;BME280;60449;52.016;5.414;2023-08-20T00:45:33;102014.03;;;19.24;79.90
72444;BME280;60449;52.016;5.414;2023-08-20T00:46:24;102023.78;;;19.31;79.48
72444;BME280;60449;52.016;5.414;2023-08-20T00:47:15;102032.03;;;19.06;79.82
72444;BME280;60449;52.016;5.414;2023-08-20T00:48:11;102021.81;;;18.44;81.79
72444;BME280;60449;52.016;5.414;2023-08-20T00:49:02;102030.84;;;18.23;83.64
72444;BME280;60449;52.016;5.414;2023-08-20T00:49:59;102033.47;;;18.35;84.05
72444;BME280;60449;52.016;5.414;2023-08-20T00:51:11;102025.34;;;18.52;83.65
72444;BME280;60449;52.016;5.414;2023-08-20T00:52:04;102020.75;;;18.70;82.93
72444;BME280;60449;52.016;5.414;2023-08-20T00:53:28;102033.06;;;18.88;80.39
72444;BME280;60449;52.016;5.414;2023-08-20T00:54:22;102033.03;;;18.90;80.50
72444;BME280;60449;52.016;5.414;2023-08-20T00:55:12;102035.03;;;18.64;81.52
72444;BME280;60449;52.016;5.414;2023-08-20T00:56:07;102028.19;;;18.23;83.25
72444;BME280;60449;52.016;5.414;2023-08-20T00:57:04;102034.47;;;18.14;84.69
72444;BME280;60449;52.016;5.414;2023-08-20T00:57:56;102042.31;;;18.44;84.46
72444;BME280;60449;52.016;5.414;2023-08-20T01:00:54;102040.13;;;18.94;82.02
72444;BME280;60449;52.016;5.414;2023-08-20T01:01:49;102040.91;;;19.08;81.20
72444;BME280;60449;52.016;5.414;2023-08-20T01:02:49;102033.69;;;19.20;80.74
72444;BME280;60449;52.016;5.414;2023-08-20T01:03:40;102038.94;;;19.29;80.25
72444;BME280;60449;52.016;5.414;2023-08-20T01:04:30;102033.59;;;19.29;80.19
72444;BME280;60449;52.016;5.414;2023-08-20T01:05:45;102040.72;;;19.30;80.42
72444;BME280;60449;52.016;5.414;2023-08-20T01:06:49;102045.91;;;19.46;79.62
72444;BME280;60449;52.016;5.414;2023-08-20T01:08:00;102045.00;;;19.47;78.54
72444;BME280;60449;52.016;5.414;2023-08-20T01:09:27;102051.16;;;19.52;79.06
72444;BME280;60449;52.016;5.414;2023-08-20T01:20:27;102039.78;;;19.34;79.43
72444;BME280;60449;52.016;5.414;2023-08-20T01:21:56;102046.72;;;19.51;78.75
72444;BME280;60449;52.016;5.414;2023-08-20T01:25:58;102059.06;;;19.66;77.77
72444;BME280;60449;52.016;5.414;2023-08-20T01:27:51;102064.66;;;19.41;78.51
72444;BME280;60449;52.016;5.414;2023-08-20T01:30:01;102065.13;;;18.85;81.04
72444;BME280;60449;52.016;5.414;2023-08-20T01:31:12;102053.50;;;18.94;81.70
72444;BME280;60449;52.016;5.414;2023-08-20T01:32:05;102065.88;;;19.07;81.13
72444;BME280;60449;52.016;5.414;2023-08-20T01:33:29;102066.81;;;18.98;81.15
72444;BME280;60449;52.016;5.414;2023-08-20T01:34:21;102064.97;;;19.11;80.96
72444;BME280;60449;52.016;5.414;2023-08-20T01:35:17;102055.94;;;19.23;80.10
72444;BME280;60449;52.016;5.414;2023-08-20T01:36:29;102065.63;;;19.37;79.33
72444;BME280;60449;52.016;5.414;2023-08-20T01:37:41;102058.41;;;19.44;79.14
72444;BME280;60449;52.016;5.414;2023-08-20T01:38:31;102055.81;;;19.34;79.37
72444;BME280;60449;52.016;5.414;2023-08-20T01:39:30;102049.47;;;19.45;78.64
72444;BME280;60449;52.016;5.414;2023-08-20T01:40:24;102060.09;;;19.51;78.13
72444;BME280;60449;52.016;5.414;2023-08-20T01:41:15;102056.72;;;19.33;78.46
72444;BME280;60449;52.016;5.414;2023-08-20T01:42:05;102066.66;;;19.20;79.28
72444;BME280;60449;52.016;5.414;2023-08-20T01:42:56;102062.97;;;19.34;79.18
72444;BME280;60449;52.016;5.414;2023-08-20T01:45:26;102069.06;;;19.45;78.49
72444;BME280;60449;52.016;5.414;2023-08-20T01:46:19;102074.38;;;19.48;78.05
72444;BME280;60449;52.016;5.414;2023-08-20T01:47:15;102072.84;;;19.27;78.23
72444;BME280;60449;52.016;5.414;2023-08-20T01:48:19;102068.44;;;19.20;78.39
72444;BME280;60449;52.016;5.414;2023-08-20T01:49:10;102072.88;;;19.22;78.40
72444;BME280;60449;52.016;5.414;2023-08-20T01:50:00;102066.66;;;19.20;78.34
72444;BME280;60449;52.016;5.414;2023-08-20T01:50:51;102067.59;;;19.15;78.42
72444;BME280;60449;52.016;5.414;2023-08-20T01:51:41;102073.81;;;19.17;78.22
72444;BME280;60449;52.016;5.414;2023-08-20T02:16:26;102088.66;;;18.33;80.30
72444;BME280;60449;52.016;5.414;2023-08-20T02:17:17;102085.09;;;18.34;80.20
72444;BME280;60449;52.016;5.414;2023-08-20T02:18:07;102084.13;;;18.41;79.93
72444;BME280;60449;52.016;5.414;2023-08-20T02:18:58;102078.81;;;18.43;79.41
72444;BME280;60449;52.016;5.414;2023-08-20T02:19:54;102082.38;;;18.39;79.38
72444;BME280;60449;52.016;5.414;2023-08-20T02:20:43;102077.94;;;18.43;79.46
72444;BME280;60449;52.016;5.414;2023-08-20T02:21:59;102078.75;;;18.49;79.06
72444;BME280;60449;52.016;5.414;2023-08-20T02:23:01;102076.16;;;18.40;79.25
72444;BME280;60449;52.016;5.414;2023-08-20T02:25:34;102071.78;;;18.25;80.88
72444;BME280;60449;52.016;5.414;2023-08-20T02:27:04;102071.69;;;18.42;80.91
72444;BME280;60449;52.016;5.414;2023-08-20T02:28:12;102071.69;;;18.42;80.21
72444;BME280;60449;52.016;5.414;2023-08-20T02:30:26;102085.00;;;18.47;80.36
72444;BME280;60449;52.016;5.414;2023-08-20T02:31:17;102080.47;;;18.60;79.95
72444;BME280;60449;52.016;5.414;2023-08-20T02:32:35;102078.63;;;18.69;79.06
72444;BME280;60449;52.016;5.414;2023-08-20T02:33:26;102079.47;;;18.78;78.76
72444;BME280;60449;52.016;5.414;2023-08-20T02:34:22;102079.47;;;18.76;78.63
72444;BME280;60449;52.016;5.414;2023-08-20T02:35:13;102071.44;;;18.76;78.50
72444;BME280;60449;52.016;5.414;2023-08-20T02:36:17;102069.75;;;18.66;78.99
72444;BME280;60449;52.016;5.414;2023-08-20T02:38:46;102069.81;;;18.55;79.07
72444;BME280;60449;52.016;5.414;2023-08-20T02:39:41;102069.00;;;18.47;79.43
72444;BME280;60449;52.016;5.414;2023-08-20T02:40:31;102063.75;;;18.31;79.57
72444;BME280;60449;52.016;5.414;2023-08-20T02:43:57;102063.88;;;18.03;81.16
72444;BME280;60449;52.016;5.414;2023-08-20T02:45:21;102060.22;;;18.24;80.54
72444;BME280;60449;52.016;5.414;2023-08-20T02:48:49;102061.19;;;18.06;80.43
72444;BME280;60449;52.016;5.414;2023-08-20T02:50:28;102059.53;;;17.76;82.08
72444;BME280;60449;52.016;5.414;2023-08-20T02:51:42;102055.06;;;17.81;83.08
72444;BME280;60449;52.016;5.414;2023-08-20T02:52:35;102060.31;;;17.96;81.85
72444;BME280;60449;52.016;5.414;2023-08-20T02:53:56;102062.03;;;18.18;80.62
72444;BME280;60449;52.016;5.414;2023-08-20T02:54:47;102050.44;;;18.23;80.54
72444;BME280;60449;52.016;5.414;2023-08-20T02:55:49;102053.03;;;18.34;79.93
72444;BME280;60449;52.016;5.414;2023-08-20T02:56:52;102043.28;;;18.29;80.19
72444;BME280;60449;52.016;5.414;2023-08-20T02:57:42;102055.69;;;18.37;79.93
72444;BME280;60449;52.016;5.414;2023-08-20T02:58:37;102054.81;;;18.34;80.08
72444;BME280;60449;52.016;5.414;2023-08-20T02:59:27;102053.09;;;18.26;80.30
72444;BME280;60449;52.016;5.414;2023-08-20T03:00:40;102047.78;;;18.23;80.34
72444;BME280;60449;52.016;5.414;2023-08-20T03:01:31;102058.53;;;18.12;81.06
72444;BME280;60449;52.016;5.414;2023-08-20T03:02:25;102058.50;;;18.14;81.11
72444;BME280;60449;52.016;5.414;2023-08-20T03:03:16;102049.59;;;18.17;80.78
72444;BME280;60449;52.016;5.414;2023-08-20T03:05:14;102054.00;;;18.19;81.31
72444;BME280;60449;52.016;5.414;2023-08-20T03:06:50;102054.97;;;18.07;81.58
72444;BME280;60449;52.016;5.414;2023-08-20T03:08:06;102055.06;;;17.81;81.63
72444;BME280;60449;52.016;5.414;2023-08-20T03:08:57;102053.28;;;17.78;82.59
72444;BME280;60449;52.016;5.414;2023-08-20T03:10:18;102059.53;;;17.71;82.97
72444;BME280;60449;52.016;5.414;2023-08-20T03:12:19;102057.81;;;17.59;83.62
72444;BME280;60449;52.016;5.414;2023-08-20T03:13:10;102055.16;;;17.54;83.21
72444;BME280;60449;52.016;5.414;2023-08-20T03:14:34;102060.44;;;17.70;82.52
72444;BME280;60449;52.016;5.414;2023-08-20T03:17:36;102063.09;;;17.73;81.90
72444;BME280;60449;52.016;5.414;2023-08-20T03:18:58;102064.88;;;17.62;82.52
72444;BME280;60449;52.016;5.414;2023-08-20T03:20:02;102067.59;;;17.55;82.49
72444;BME280;60449;52.016;5.414;2023-08-20T03:21:30;102066.72;;;17.36;82.61
72444;BME280;60449;52.016;5.414;2023-08-20T03:22:40;102063.19;;;17.34;82.75
72444;BME280;60449;52.016;5.414;2023-08-20T03:23:39;102058.72;;;17.35;82.65
72444;BME280;60449;52.016;5.414;2023-08-20T03:36:19;102069.31;;;17.72;81.58
72444;BME280;60449;52.016;5.414;2023-08-20T03:37:33;102063.94;;;17.78;81.20
72444;BME280;60449;52.016;5.414;2023-08-20T03:38:54;102071.97;;;17.74;81.29
72444;BME280;60449;52.016;5.414;2023-08-20T03:40:15;102067.53;;;17.76;81.44
72444;BME280;60449;52.016;5.414;2023-08-20T03:41:14;102068.38;;;17.79;81.09
72444;BME280;60449;52.016;5.414;2023-08-20T03:42:05;102074.59;;;17.83;80.93
72444;BME280;60449;52.016;5.414;2023-08-20T03:43:49;102071.06;;;17.86;81.24
72444;BME280;60449;52.016;5.414;2023-08-20T03:44:49;102074.59;;;17.92;80.93
72444;BME280;60449;52.016;5.414;2023-08-20T03:45:41;102074.53;;;17.98;80.46
72444;BME280;60449;52.016;5.414;2023-08-20T03:46:41;102067.47;;;17.90;80.50
72444;BME280;60449;52.016;5.414;2023-08-20T03:47:35;102074.63;;;17.78;80.93
72444;BME280;60449;52.016;5.414;2023-08-20T03:48:38;102081.75;;;17.75;81.40
72444;BME280;60449;52.016;5.414;2023-08-20T03:49:47;102076.38;;;17.86;81.10
72444;BME280;60449;52.016;5.414;2023-08-20T03:50:39;102076.38;;;17.84;81.10
72444;BME280;60449;52.016;5.414;2023-08-20T03:51:41;102074.66;;;17.63;81.42
72444;BME280;60449;52.016;5.414;2023-08-20T03:52:40;102080.03;;;17.55;81.77
72444;BME280;60449;52.016;5.414;2023-08-20T03:53:40;102080.91;;;17.68;81.69
72444;BME280;60449;52.016;5.414;2023-08-20T03:55:50;102078.25;;;17.49;81.79
72444;BME280;60449;52.016;5.414;2023-08-20T03:56:41;102073.81;;;17.45;82.12
72444;BME280;60449;52.016;5.414;2023-08-20T03:57:40;102075.59;;;17.55;81.88
72444;BME280;60449;52.016;5.414;2023-08-20T03:58:31;102073.81;;;17.58;81.90
72444;BME280;60449;52.016;5.414;2023-08-20T03:59:53;102079.06;;;17.76;81.61
72444;BME280;60449;52.016;5.414;2023-08-20T04:01:50;102077.22;;;17.89;80.81
72444;BME280;60449;52.016;5.414;2023-08-20T04:02:44;102075.47;;;17.88;80.65
72444;BME280;60449;52.016;5.414;2023-08-20T04:05:54;102087.03;;;17.93;79.83
72444;BME280;60449;52.016;5.414;2023-08-20T04:08:00;102085.22;;;17.98;79.17
72444;BME280;60449;52.016;5.414;2023-08-20T04:09:28;102082.53;;;18.09;79.05
72444;BME280;60449;52.016;5.414;2023-08-20T04:10:18;102091.41;;;18.13;78.54
72444;BME280;60449;52.016;5.414;2023-08-20T04:11:12;102085.19;;;18.14;78.36
72444;BME280;60449;52.016;5.414;2023-08-20T04:12:03;102087.00;;;17.99;78.92
72444;BME280;60449;52.016;5.414;2023-08-20T04:13:06;102091.47;;;17.93;79.14
72444;BME280;60449;52.016;5.414;2023-08-20T04:14:35;102090.63;;;17.84;79.34
72444;BME280;60449;52.016;5.414;2023-08-20T04:22:15;102099.53;;;17.74;79.77
72444;BME280;60449;52.016;5.414;2023-08-20T04:23:18;102098.69;;;17.61;80.00
72444;BME280;60449;52.016;5.414;2023-08-20T04:26:24;102108.44;;;17.61;79.72
72444;BME280;60449;52.016;5.414;2023-08-20T04:29:41;102099.56;;;17.57;80.01
72444;BME280;60449;52.016;5.414;2023-08-20T04:30:34;102116.47;;;17.50;80.14
72444;BME280;60449;52.016;5.414;2023-08-20T04:31:24;102111.13;;;17.56;79.75
72444;BME280;60449;52.016;5.414;2023-08-20T04:32:14;102108.47;;;17.50;80.21
72444;BME280;60449;52.016;5.414;2023-08-20T04:33:19;102116.50;;;17.47;80.65
72444;BME280;60449;52.016;5.414;2023-08-20T04:34:30;102112.94;;;17.43;80.52
72444;BME280;60449;52.016;5.414;2023-08-20T04:36:08;102120.06;;;17.46;80.51
72444;BME280;60449;52.016;5.414;2023-08-20T04:36:58;102117.38;;;17.44;80.64
72444;BME280;60449;52.016;5.414;2023-08-20T04:37:51;102114.72;;;17.36;81.00
72444;BME280;60449;52.016;5.414;2023-08-20T04:38:48;102110.28;;;17.29;81.12
72444;BME280;60449;52.016;5.414;2023-08-20T04:39:38;102118.28;;;17.37;81.22
72444;BME280;60449;52.016;5.414;2023-08-20T04:40:36;102108.50;;;17.42;80.94
72444;BME280;60449;52.016;5.414;2023-08-20T04:41:27;102112.94;;;17.45;80.86
72444;BME280;60449;52.016;5.414;2023-08-20T04:42:22;102118.25;;;17.49;80.59
72444;BME280;60449;52.016;5.414;2023-08-20T04:43:22;102117.34;;;17.60;80.36
72444;BME280;60449;52.016;5.414;2023-08-20T04:44:12;102126.25;;;17.54;80.22
72444;BME280;60449;52.016;5.414;2023-08-20T04:45:14;102121.81;;;17.48;80.08
72444;BME280;60449;52.016;5.414;2023-08-20T04:46:07;102122.69;;;17.56;80.06
72444;BME280;60449;52.016;5.414;2023-08-20T04:46:57;102122.69;;;17.55;79.92
72444;BME280;60449;52.016;5.414;2023-08-20T04:47:53;102119.13;;;17.53;80.13
72444;BME280;60449;52.016;5.414;2023-08-20T04:48:49;102119.16;;;17.47;80.57
72444;BME280;60449;52.016;5.414;2023-08-20T04:49:52;102118.25;;;17.60;80.25
72444;BME280;60449;52.016;5.414;2023-08-20T04:50:43;102121.78;;;17.62;80.32
72444;BME280;60449;52.016;5.414;2023-08-20T04:51:45;102123.59;;;17.45;80.92
72444;BME280;60449;52.016;5.414;2023-08-20T04:52:36;102120.91;;;17.51;81.02
72444;BME280;60449;52.016;5.414;2023-08-20T04:53:35;102123.59;;;17.48;81.18
72444;BME280;60449;52.016;5.414;2023-08-20T04:54:27;102131.56;;;17.49;81.09
72444;BME280;60449;52.016;5.414;2023-08-20T04:55:17;102123.63;;;17.29;81.84
72444;BME280;60449;52.016;5.414;2023-08-20T04:56:32;102136.03;;;17.35;82.15
72444;BME280;60449;52.016;5.414;2023-08-20T05:08:51;102129.78;;;17.73;80.25
72444;BME280;60449;52.016;5.414;2023-08-20T05:09:59;102140.47;;;17.53;81.22
72444;BME280;60449;52.016;5.414;2023-08-20T05:13:29;102138.69;;;17.55;82.13
72444;BME280;60449;52.016;5.414;2023-08-20T05:37:20;102142.97;;;18.27;78.42
72444;BME280;60449;52.016;5.414;2023-08-20T05:38:38;102145.63;;;18.26;78.78
72444;BME280;60449;52.016;5.414;2023-08-20T05:39:37;102143.88;;;18.23;78.91
72444;BME280;60449;52.016;5.414;2023-08-20T05:40:51;102145.63;;;18.27;78.63
72444;BME280;60449;52.016;5.414;2023-08-20T05:41:58;102147.38;;;18.33;78.33
72444;BME280;60449;52.016;5.414;2023-08-20T05:42:49;102143.81;;;18.39;78.18
72444;BME280;60449;52.016;5.414;2023-08-20T05:43:42;102141.97;;;18.49;77.88
72444;BME280;60449;52.016;5.414;2023-08-20T05:44:42;102147.28;;;18.53;77.72
72444;BME280;60449;52.016;5.414;2023-08-20T05:45:42;102149.09;;;18.50;77.78
72444;BME280;60449;52.016;5.414;2023-08-20T05:50:44;102146.53;;;18.23;78.45
72444;BME280;60449;52.016;5.414;2023-08-20T05:54:43;102158.88;;;18.49;78.01
72444;BME280;60449;52.016;5.414;2023-08-20T05:56:13;102156.16;;;18.57;77.86
72444;BME280;60449;52.016;5.414;2023-08-20T05:57:15;102151.78;;;18.42;77.76
72444;BME280;60449;52.016;5.414;2023-08-20T05:58:39;102150.00;;;18.50;77.68
72444;BME280;60449;52.016;5.414;2023-08-20T05:59:29;102146.44;;;18.45;77.76
72444;BME280;60449;52.016;5.414;2023-08-20T06:00:41;102147.34;;;18.46;78.31
72444;BME280;60449;52.016;5.414;2023-08-20T06:01:32;102149.97;;;18.47;78.14
72444;BME280;60449;52.016;5.414;2023-08-20T06:02:51;102142.00;;;18.41;78.35
72444;BME280;60449;52.016;5.414;2023-08-20T06:03:43;102142.88;;;18.46;78.24
72444;BME280;60449;52.016;5.414;2023-08-20T06:04:32;102145.50;;;18.49;78.45
72444;BME280;60449;52.016;5.414;2023-08-20T06:05:26;102153.53;;;18.51;78.63
72444;BME280;60449;52.016;5.414;2023-08-20T06:06:25;102151.66;;;18.64;78.28
72444;BME280;60449;52.016;5.414;2023-08-20T06:07:15;102150.78;;;18.66;77.89
72444;BME280;60449;52.016;5.414;2023-08-20T06:08:23;102141.88;;;18.63;78.20
72444;BME280;60449;52.016;5.414;2023-08-20T06:09:19;102144.56;;;18.63;77.99
72444;BME280;60449;52.016;5.414;2023-08-20T06:10:31;102144.63;;;18.52;78.67
72444;BME280;60449;52.016;5.414;2023-08-20T06:11:21;102155.28;;;18.55;78.87
72444;BME280;60449;52.016;5.414;2023-08-20T06:12:44;102155.41;;;18.29;79.94
72444;BME280;60449;52.016;5.414;2023-08-20T06:13:52;102147.38;;;18.32;80.63
72444;BME280;60449;52.016;5.414;2023-08-20T06:15:14;102148.31;;;18.27;81.43
72444;BME280;60449;52.016;5.414;2023-08-20T06:16:04;102146.59;;;17.89;82.87
72444;BME280;60449;52.016;5.414;2023-08-20T06:16:55;102150.22;;;17.83;83.91
72444;BME280;60449;52.016;5.414;2023-08-20T06:17:47;102143.09;;;17.81;84.12
72444;BME280;60449;52.016;5.414;2023-08-20T06:18:37;102148.41;;;17.79;84.58
72444;BME280;60449;52.016;5.414;2023-08-20T06:19:31;102139.53;;;17.79;84.24
72444;BME280;60449;52.016;5.414;2023-08-20T06:20:27;102143.06;;;17.79;84.23
72444;BME280;60449;52.016;5.414;2023-08-20T06:21:18;102141.34;;;17.55;85.58
72444;BME280;60449;52.016;5.414;2023-08-20T06:22:35;102141.34;;;17.55;85.73
72444;BME280;60449;52.016;5.414;2023-08-20T06:23:26;102152.00;;;17.64;85.63
72444;BME280;60449;52.016;5.414;2023-08-20T06:30:22;102146.63;;;17.86;85.01
72444;BME280;60449;52.016;5.414;2023-08-20T06:31:16;102144.00;;;17.69;85.63
72444;BME280;60449;52.016;5.414;2023-08-20T06:32:11;102144.91;;;17.57;86.70
72444;BME280;60449;52.016;5.414;2023-08-20T06:33:02;102146.69;;;17.64;86.20
72444;BME280;60449;52.016;5.414;2023-08-20T06:41:45;102143.06;;;17.84;87.18
72444;BME280;60449;52.016;5.414;2023-08-20T06:42:36;102150.19;;;17.82;87.64
72444;BME280;60449;52.016;5.414;2023-08-20T06:43:47;102153.72;;;17.98;87.13
72444;BME280;60449;52.016;5.414;2023-08-20T06:44:54;102144.69;;;18.38;86.10
72444;BME280;60449;52.016;5.414;2023-08-20T06:45:45;102148.28;;;18.31;85.50
72444;BME280;60449;52.016;5.414;2023-08-20T06:46:38;102153.59;;;18.34;85.04
72444;BME280;60449;52.016;5.414;2023-08-20T06:47:29;102149.09;;;18.51;85.06
72444;BME280;60449;52.016;5.414;2023-08-20T06:48:22;102146.34;;;18.61;83.61
72444;BME280;60449;52.016;5.414;2023-08-20T06:49:14;102149.09;;;18.50;84.23
72444;BME280;60449;52.016;5.414;2023-08-20T06:50:05;102143.81;;;18.34;83.99
72444;BME280;60449;52.016;5.414;2023-08-20T06:51:22;102148.19;;;18.49;83.16
72444;BME280;60449;52.016;5.414;2023-08-20T06:52:21;102141.91;;;18.55;82.01
72444;BME280;60449;52.016;5.414;2023-08-20T06:53:10;102134.75;;;18.68;81.67
72444;BME280;60449;52.016;5.414;2023-08-20T06:54:02;102133.88;;;18.64;81.36
72444;BME280;60449;52.016;5.414;2023-08-20T06:55:01;102137.47;;;18.59;81.93
72444;BME280;60449;52.016;5.414;2023-08-20T06:58:23;102141.69;;;18.97;80.11
72444;BME280;60449;52.016;5.414;2023-08-20T06:59:18;102129.06;;;19.18;79.13
72444;BME280;60449;52.016;5.414;2023-08-20T07:00:30;102142.56;;;18.93;80.70
72444;BME280;60449;52.016;5.414;2023-08-20T07:01:31;102131.06;;;18.85;81.18
72444;BME280;60449;52.016;5.414;2023-08-20T07:02:21;102144.22;;;19.16;80.13
72444;BME280;60449;52.016;5.414;2023-08-20T07:03:14;102140.78;;;19.00;79.40
72444;BME280;60449;52.016;5.414;2023-08-20T07:04:22;102137.09;;;19.19;79.24
72444;BME280;60449;52.016;5.414;2023-08-20T07:05:29;102143.31;;;19.21;79.45
72444;BME280;60449;52.016;5.414;2023-08-20T07:06:28;102137.09;;;19.18;79.97
72444;BME280;60449;52.016;5.414;2023-08-20T07:07:27;102145.81;;;19.38;78.89
72444;BME280;60449;52.016;5.414;2023-08-20T07:08:42;102151.41;;;19.07;79.48
72444;BME280;60449;52.016;5.414;2023-08-20T07:09:41;102147.84;;;19.11;78.55
72444;BME280;60449;52.016;5.414;2023-08-20T07:10:37;102151.41;;;19.09;78.70
72444;BME280;60449;52.016;5.414;2023-08-20T07:11:32;102152.09;;;19.33;78.35
72444;BME280;60449;52.016;5.414;2023-08-20T07:12:22;102147.66;;;19.33;79.11
72444;BME280;60449;52.016;5.414;2023-08-20T07:13:11;102144.94;;;19.38;77.91
72444;BME280;60449;52.016;5.414;2023-08-20T07:14:08;102143.84;;;19.56;77.02
72444;BME280;60449;52.016;5.414;2023-08-20T07:14:58;102142.22;;;19.39;78.47
72444;BME280;60449;52.016;5.414;2023-08-20T07:15:54;102145.88;;;19.31;77.36
72444;BME280;60449;52.016;5.414;2023-08-20T07:21:10;102150.75;;;19.80;77.47
72444;BME280;60449;52.016;5.414;2023-08-20T07:26:07;102159.38;;;20.10;76.08
72444;BME280;60449;52.016;5.414;2023-08-20T07:27:19;102164.31;;;19.65;77.58
72444;BME280;60449;52.016;5.414;2023-08-20T07:28:10;102167.06;;;19.57;77.53
72444;BME280;60449;52.016;5.414;2023-08-20T07:29:40;102160.56;;;19.78;77.45
72444;BME280;60449;52.016;5.414;2023-08-20T07:30:49;102156.00;;;19.94;77.32
72444;BME280;60449;52.016;5.414;2023-08-20T07:31:44;102163.06;;;20.02;76.91
72444;BME280;60449;52.016;5.414;2023-08-20T07:32:49;102164.47;;;19.48;77.37
72444;BME280;60449;52.016;5.414;2023-08-20T07:33:39;102156.44;;;19.48;77.67
72444;BME280;60449;52.016;5.414;2023-08-20T07:34:29;102161.50;;;19.76;76.53
72444;BME280;60449;52.016;5.414;2023-08-20T07:35:19;102156.03;;;19.85;76.36
72444;BME280;60449;52.016;5.414;2023-08-20T07:36:24;102162.66;;;19.51;76.20
72444;BME280;60449;52.016;5.414;2023-08-20T07:37:14;102165.25;;;19.56;77.00
72444;BME280;60449;52.016;5.414;2023-08-20T07:38:04;102157.19;;;19.61;77.42
72444;BME280;60449;52.016;5.414;2023-08-20T07:38:57;102165.22;;;19.61;76.76
72444;BME280;60449;52.016;5.414;2023-08-20T07:39:49;102159.97;;;19.51;77.52
72444;BME280;60449;52.016;5.414;2023-08-20T07:40:39;102160.72;;;19.66;76.76
72444;BME280;60449;52.016;5.414;2023-08-20T07:41:29;102162.50;;;19.67;76.46
72444;BME280;60449;52.016;5.414;2023-08-20T07:42:22;102169.59;;;19.71;76.26
72444;BME280;60449;52.016;5.414;2023-08-20T07:43:15;102166.03;;;19.69;77.03
72444;BME280;60449;52.016;5.414;2023-08-20T07:44:05;102166.03;;;19.69;76.50
72444;BME280;60449;52.016;5.414;2023-08-20T07:44:57;102164.22;;;19.71;77.20
72444;BME280;60449;52.016;5.414;2023-08-20T07:45:46;102161.72;;;19.57;77.24
72444;BME280;60449;52.016;5.414;2023-08-20T07:46:36;102172.09;;;19.85;76.63
72444;BME280;60449;52.016;5.414;2023-08-20T07:47:26;102169.53;;;19.76;76.37
72444;BME280;60449;52.016;5.414;2023-08-20T07:48:18;102177.41;;;19.93;75.51
72444;BME280;60449;52.016;5.414;2023-08-20T07:49:08;102168.38;;;20.05;75.66
72444;BME280;60449;52.016;5.414;2023-08-20T07:49:58;102169.00;;;20.26;74.59
72444;BME280;60449;52.016;5.414;2023-08-20T07:50:50;102171.72;;;20.22;74.23
72444;BME280;60449;52.016;5.414;2023-08-20T07:51:52;102177.75;;;20.38;73.33
72444;BME280;60449;52.016;5.414;2023-08-20T07:52:43;102174.06;;;20.49;71.88
72444;BME280;60449;52.016;5.414;2023-08-20T07:53:36;102170.53;;;20.45;72.76
72444;BME280;60449;52.016;5.414;2023-08-20T07:54:26;102184.03;;;20.39;73.58
72444;BME280;60449;52.016;5.414;2023-08-20T07:55:30;102179.03;;;20.08;74.01
72444;BME280;60449;52.016;5.414;2023-08-20T07:56:20;102169.00;;;20.26;73.65
72444;BME280;60449;52.016;5.414;2023-08-20T07:57:10;102177.19;;;20.15;74.04
72444;BME280;60449;52.016;5.414;2023-08-20T07:58:01;102174.38;;;20.24;73.54